sensor_id;sensor_type;location;lat;lon;timestamp;P1;durP1;ratioP1;P2;durP2;ratioP2
20699;SDS011;10511;51.232;9.420;2023-11-21T00:00:40;0.80;;;0.80;;
20699;SDS011;10511;51.232;9.420;2023-11-21T00:03:08;0.80;;;0.80;;
20699;SDS011;10511;51.232;9.420;2023-11-21T00:05:36;0.80;;;0.80;;
20699;SDS011;10511;51.232;9.420;2023-11-21T00:08:03;0.83;;;0.83;;
20699;SDS011;10511;51.232;9.420;2023-11-21T00:10:31;0.80;;;0.80;;
20699;SDS011;10511;51.232;9.420;2023-11-21T00:12:58;0.93;;;0.93;;
20699;SDS011;10511;51.232;9.420;2023-11-21T00:15:27;0.80;;;0.80;;
20699;SDS011;10511;51.232;9.420;2023-11-21T00:17:54;0.90;;;0.90;;
20699;SDS011;10511;51.232;9.420;2023-11-21T00:20:22;0.80;;;0.80;;
20699;SDS011;10511;51.232;9.420;2023-11-21T00:22:49;0.90;;;0.90;;
20699;SDS011;10511;51.232;9.420;2023-11-21T00:25:16;0.80;;;0.80;;
20699;SDS011;10511;51.232;9.420;2023-11-21T00:27:43;0.90;;;0.90;;
20699;SDS011;10511;51.232;9.420;2023-11-21T00:30:10;0.80;;;0.80;;
20699;SDS011;10511;51.232;9.420;2023-11-21T00:32:38;0.80;;;0.80;;
20699;SDS011;10511;51.232;9.420;2023-11-21T00:35:05;0.80;;;0.80;;
20699;SDS011;10511;51.232;9.420;2023-11-21T00:37:34;0.80;;;0.80;;
20699;SDS011;10511;51.232;9.420;2023-11-21T00:40:01;0.80;;;0.80;;
20699;SDS011;10511;51.232;9.420;2023-11-21T00:42:30;0.80;;;0.80;;
20699;SDS011;10511;51.232;9.420;2023-11-21T00:44:58;0.80;;;0.80;;
20699;SDS011;10511;51.232;9.420;2023-11-21T00:47:25;0.80;;;0.80;;
20699;SDS011;10511;51.232;9.420;2023-11-21T00:49:51;0.90;;;0.90;;
20699;SDS011;10511;51.232;9.420;2023-11-21T00:52:19;0.80;;;0.80;;
20699;SDS011;10511;51.232;9.420;2023-11-21T00:54:50;1.00;;;1.00;;
20699;SDS011;10511;51.232;9.420;2023-11-21T00:57:17;0.87;;;0.87;;
20699;SDS011;10511;51.232;9.420;2023-11-21T00:59:44;0.80;;;0.80;;
20699;SDS011;10511;51.232;9.420;2023-11-21T01:02:11;0.90;;;0.90;;
20699;SDS011;10511;51.232;9.420;2023-11-21T01:04:38;0.80;;;0.80;;
20699;SDS011;10511;51.232;9.420;2023-11-21T01:07:05;0.73;;;0.73;;
20699;SDS011;10511;51.232;9.420;2023-11-21T01:09:32;0.80;;;0.80;;
20699;SDS011;10511;51.232;9.420;2023-11-21T01:12:00;0.80;;;0.80;;
20699;SDS011;10511;51.232;9.420;2023-11-21T01:14:27;0.80;;;0.80;;
20699;SDS011;10511;51.232;9.420;2023-11-21T01:16:54;0.80;;;0.80;;
20699;SDS011;10511;51.232;9.420;2023-11-21T01:19:21;0.90;;;0.90;;
20699;SDS011;10511;51.232;9.420;2023-11-21T01:21:48;0.90;;;0.90;;
20699;SDS011;10511;51.232;9.420;2023-11-21T01:24:17;0.80;;;0.80;;
20699;SDS011;10511;51.232;9.420;2023-11-21T01:26:44;0.87;;;0.87;;
20699;SDS011;10511;51.232;9.420;2023-11-21T01:29:13;0.90;;;0.90;;
20699;SDS011;10511;51.232;9.420;2023-11-21T01:31:40;0.80;;;0.80;;
20699;SDS011;10511;51.232;9.420;2023-11-21T01:34:07;0.80;;;0.80;;
20699;SDS011;10511;51.232;9.420;2023-11-21T01:36:33;0.93;;;0.93;;
20699;SDS011;10511;51.232;9.420;2023-11-21T01:39:00;0.90;;;0.90;;
20699;SDS011;10511;51.232;9.420;2023-11-21T01:41:28;0.97;;;0.97;;
20699;SDS011;10511;51.232;9.420;2023-11-21T01:43:55;0.90;;;0.90;;
20699;SDS011;10511;51.232;9.420;2023-11-21T01:46:24;0.90;;;0.90;;
20699;SDS011;10511;51.232;9.420;2023-11-21T01:48:51;0.90;;;0.90;;
20699;SDS011;10511;51.232;9.420;2023-11-21T01:51:20;0.80;;;0.80;;
20699;SDS011;10511;51.232;9.420;2023-11-21T01:53:47;0.90;;;0.90;;
20699;SDS011;10511;51.232;9.420;2023-11-21T01:56:14;0.90;;;0.90;;
20699;SDS011;10511;51.232;9.420;2023-11-21T01:58:41;0.80;;;0.80;;
20699;SDS011;10511;51.232;9.420;2023-11-21T02:01:09;0.90;;;0.90;;
20699;SDS011;10511;51.232;9.420;2023-11-21T02:03:37;0.90;;;0.90;;
20699;SDS011;10511;51.232;9.420;2023-11-21T02:06:04;0.90;;;0.90;;
20699;SDS011;10511;51.232;9.420;2023-11-21T02:08:56;0.90;;;0.90;;
20699;SDS011;10511;51.232;9.420;2023-11-21T02:11:24;0.90;;;0.90;;
20699;SDS011;10511;51.232;9.420;2023-11-21T02:13:52;1.00;;;1.00;;
20699;SDS011;10511;51.232;9.420;2023-11-21T02:16:20;1.00;;;1.00;;
20699;SDS011;10511;51.232;9.420;2023-11-21T02:18:48;0.90;;;0.90;;
20699;SDS011;10511;51.232;9.420;2023-11-21T02:21:15;1.00;;;1.00;;
20699;SDS011;10511;51.232;9.420;2023-11-21T02:23:44;0.90;;;0.90;;
20699;SDS011;10511;51.232;9.420;2023-11-21T02:26:11;1.00;;;1.00;;
20699;SDS011;10511;51.232;9.420;2023-11-21T02:28:39;1.00;;;1.00;;
20699;SDS011;10511;51.232;9.420;2023-11-21T02:31:07;1.00;;;1.00;;
20699;SDS011;10511;51.232;9.420;2023-11-21T02:33:34;0.90;;;0.90;;
20699;SDS011;10511;51.232;9.420;2023-11-21T02:36:01;0.90;;;0.90;;
20699;SDS011;10511;51.232;9.420;2023-11-21T02:38:29;0.93;;;0.93;;
20699;SDS011;10511;51.232;9.420;2023-11-21T02:40:58;1.00;;;1.00;;
20699;SDS011;10511;51.232;9.420;2023-11-21T02:43:25;0.90;;;0.90;;
20699;SDS011;10511;51.232;9.420;2023-11-21T02:45:52;0.90;;;0.90;;
20699;SDS011;10511;51.232;9.420;2023-11-21T02:48:19;1.03;;;1.03;;
20699;SDS011;10511;51.232;9.420;2023-11-21T02:50:45;1.10;;;1.10;;
20699;SDS011;10511;51.232;9.420;2023-11-21T02:53:12;0.90;;;0.90;;
20699;SDS011;10511;51.232;9.420;2023-11-21T02:55:40;1.00;;;1.00;;
20699;SDS011;10511;51.232;9.420;2023-11-21T02:58:08;1.00;;;1.00;;
20699;SDS011;10511;51.232;9.420;2023-11-21T03:00:35;1.00;;;1.00;;
20699;SDS011;10511;51.232;9.420;2023-11-21T03:03:02;0.93;;;0.93;;
20699;SDS011;10511;51.232;9.420;2023-11-21T03:05:29;1.10;;;1.10;;
20699;SDS011;10511;51.232;9.420;2023-11-21T03:07:56;1.00;;;1.00;;
20699;SDS011;10511;51.232;9.420;2023-11-21T03:10:23;0.90;;;0.90;;
20699;SDS011;10511;51.232;9.420;2023-11-21T03:12:50;0.90;;;0.90;;
20699;SDS011;10511;51.232;9.420;2023-11-21T03:15:19;1.00;;;1.00;;
20699;SDS011;10511;51.232;9.420;2023-11-21T03:17:45;0.90;;;0.90;;
20699;SDS011;10511;51.232;9.420;2023-11-21T03:20:14;0.90;;;0.90;;
20699;SDS011;10511;51.232;9.420;2023-11-21T03:22:41;1.00;;;1.00;;
20699;SDS011;10511;51.232;9.420;2023-11-21T03:25:08;0.90;;;0.90;;
20699;SDS011;10511;51.232;9.420;2023-11-21T03:27:36;0.97;;;0.97;;
20699;SDS011;10511;51.232;9.420;2023-11-21T03:30:05;1.00;;;1.00;;
20699;SDS011;10511;51.232;9.420;2023-11-21T03:32:36;1.00;;;1.00;;
20699;SDS011;10511;51.232;9.420;2023-11-21T03:35:03;0.90;;;0.90;;
20699;SDS011;10511;51.232;9.420;2023-11-21T03:37:31;1.00;;;1.00;;
20699;SDS011;10511;51.232;9.420;2023-11-21T03:39:57;0.90;;;0.90;;
20699;SDS011;10511;51.232;9.420;2023-11-21T03:42:24;1.00;;;1.00;;
20699;SDS011;10511;51.232;9.420;2023-11-21T03:44:51;0.97;;;0.97;;
20699;SDS011;10511;51.232;9.420;2023-11-21T03:47:18;0.90;;;0.90;;
20699;SDS011;10511;51.232;9.420;2023-11-21T03:49:47;0.93;;;0.93;;
20699;SDS011;10511;51.232;9.420;2023-11-21T03:52:13;1.00;;;1.00;;
20699;SDS011;10511;51.232;9.420;2023-11-21T03:54:40;0.90;;;0.90;;
20699;SDS011;10511;51.232;9.420;2023-11-21T03:57:08;0.90;;;0.90;;
20699;SDS011;10511;51.232;9.420;2023-11-21T03:59:35;1.00;;;1.00;;
20699;SDS011;10511;51.232;9.420;2023-11-21T04:02:03;0.90;;;0.90;;
20699;SDS011;10511;51.232;9.420;2023-11-21T04:04:30;0.93;;;0.93;;
20699;SDS011;10511;51.232;9.420;2023-11-21T04:06:58;0.90;;;0.90;;
20699;SDS011;10511;51.232;9.420;2023-11-21T04:09:25;0.90;;;0.90;;
20699;SDS011;10511;51.232;9.420;2023-11-21T04:11:52;0.90;;;0.90;;
20699;SDS011;10511;51.232;9.420;2023-11-21T04:14:19;0.93;;;0.93;;
20699;SDS011;10511;51.232;9.420;2023-11-21T04:16:46;0.90;;;0.90;;
20699;SDS011;10511;51.232;9.420;2023-11-21T04:19:13;0.90;;;0.90;;
20699;SDS011;10511;51.232;9.420;2023-11-21T04:21:40;0.90;;;0.90;;
20699;SDS011;10511;51.232;9.420;2023-11-21T04:24:09;0.80;;;0.80;;
20699;SDS011;10511;51.232;9.420;2023-11-21T04:26:36;0.90;;;0.90;;
20699;SDS011;10511;51.232;9.420;2023-11-21T04:29:03;0.90;;;0.90;;
20699;SDS011;10511;51.232;9.420;2023-11-21T04:31:30;0.90;;;0.90;;
20699;SDS011;10511;51.232;9.420;2023-11-21T04:33:58;0.90;;;0.90;;
20699;SDS011;10511;51.232;9.420;2023-11-21T04:36:25;0.90;;;0.90;;
20699;SDS011;10511;51.232;9.420;2023-11-21T04:38:51;0.90;;;0.90;;
20699;SDS011;10511;51.232;9.420;2023-11-21T04:41:20;1.00;;;1.00;;
20699;SDS011;10511;51.232;9.420;2023-11-21T04:43:47;0.90;;;0.90;;
20699;SDS011;10511;51.232;9.420;2023-11-21T04:46:14;0.90;;;0.90;;
20699;SDS011;10511;51.232;9.420;2023-11-21T04:48:41;1.00;;;1.00;;
20699;SDS011;10511;51.232;9.420;2023-11-21T04:51:08;1.00;;;1.00;;
20699;SDS011;10511;51.232;9.420;2023-11-21T04:53:36;0.90;;;0.90;;
20699;SDS011;10511;51.232;9.420;2023-11-21T04:56:04;1.00;;;1.00;;
20699;SDS011;10511;51.232;9.420;2023-11-21T04:58:33;1.00;;;1.00;;
20699;SDS011;10511;51.232;9.420;2023-11-21T05:01:00;1.10;;;1.10;;
20699;SDS011;10511;51.232;9.420;2023-11-21T05:03:28;1.00;;;1.00;;
20699;SDS011;10511;51.232;9.420;2023-11-21T05:05:56;1.00;;;1.00;;
20699;SDS011;10511;51.232;9.420;2023-11-21T05:08:22;1.00;;;1.00;;
20699;SDS011;10511;51.232;9.420;2023-11-21T05:10:50;1.00;;;1.00;;
20699;SDS011;10511;51.232;9.420;2023-11-21T05:13:18;0.90;;;0.90;;
20699;SDS011;10511;51.232;9.420;2023-11-21T05:15:47;0.90;;;0.90;;
20699;SDS011;10511;51.232;9.420;2023-11-21T05:18:15;1.00;;;1.00;;
20699;SDS011;10511;51.232;9.420;2023-11-21T05:20:42;0.90;;;0.90;;
20699;SDS011;10511;51.232;9.420;2023-11-21T05:23:11;1.10;;;1.10;;
20699;SDS011;10511;51.232;9.420;2023-11-21T05:25:38;1.00;;;1.00;;
20699;SDS011;10511;51.232;9.420;2023-11-21T05:28:06;1.00;;;1.00;;
20699;SDS011;10511;51.232;9.420;2023-11-21T05:30:33;1.00;;;1.00;;
20699;SDS011;10511;51.232;9.420;2023-11-21T05:33:02;1.00;;;1.00;;
20699;SDS011;10511;51.232;9.420;2023-11-21T05:35:28;1.00;;;1.00;;
20699;SDS011;10511;51.232;9.420;2023-11-21T05:37:56;1.00;;;1.00;;
20699;SDS011;10511;51.232;9.420;2023-11-21T05:40:23;1.10;;;1.10;;
20699;SDS011;10511;51.232;9.420;2023-11-21T05:42:51;1.03;;;1.03;;
20699;SDS011;10511;51.232;9.420;2023-11-21T05:45:18;1.00;;;1.00;;
20699;SDS011;10511;51.232;9.420;2023-11-21T05:47:46;1.00;;;1.00;;
20699;SDS011;10511;51.232;9.420;2023-11-21T05:50:15;1.10;;;1.10;;
20699;SDS011;10511;51.232;9.420;2023-11-21T05:52:44;1.10;;;1.10;;
20699;SDS011;10511;51.232;9.420;2023-11-21T05:55:12;1.00;;;1.00;;
20699;SDS011;10511;51.232;9.420;2023-11-21T05:57:39;0.90;;;0.90;;
20699;SDS011;10511;51.232;9.420;2023-11-21T06:00:08;1.00;;;1.00;;
20699;SDS011;10511;51.232;9.420;2023-11-21T06:02:40;0.90;;;0.90;;
20699;SDS011;10511;51.232;9.420;2023-11-21T06:05:08;1.00;;;1.00;;
20699;SDS011;10511;51.232;9.420;2023-11-21T06:07:36;0.90;;;0.90;;
20699;SDS011;10511;51.232;9.420;2023-11-21T06:10:05;1.00;;;1.00;;
20699;SDS011;10511;51.232;9.420;2023-11-21T06:12:36;0.90;;;0.90;;
20699;SDS011;10511;51.232;9.420;2023-11-21T06:15:03;1.03;;;1.03;;
20699;SDS011;10511;51.232;9.420;2023-11-21T06:17:33;0.90;;;0.90;;
20699;SDS011;10511;51.232;9.420;2023-11-21T06:20:01;1.00;;;1.00;;
20699;SDS011;10511;51.232;9.420;2023-11-21T06:22:34;1.00;;;1.00;;
20699;SDS011;10511;51.232;9.420;2023-11-21T06:25:02;0.90;;;0.90;;
20699;SDS011;10511;51.232;9.420;2023-11-21T06:27:31;0.90;;;0.90;;
20699;SDS011;10511;51.232;9.420;2023-11-21T06:29:59;1.10;;;1.10;;
20699;SDS011;10511;51.232;9.420;2023-11-21T06:32:26;1.00;;;1.00;;
20699;SDS011;10511;51.232;9.420;2023-11-21T06:34:54;0.90;;;0.90;;
20699;SDS011;10511;51.232;9.420;2023-11-21T06:37:23;0.90;;;0.90;;
20699;SDS011;10511;51.232;9.420;2023-11-21T06:39:50;0.90;;;0.90;;
20699;SDS011;10511;51.232;9.420;2023-11-21T06:42:19;0.90;;;0.90;;
20699;SDS011;10511;51.232;9.420;2023-11-21T06:44:46;0.90;;;0.90;;
20699;SDS011;10511;51.232;9.420;2023-11-21T06:47:13;0.90;;;0.90;;
20699;SDS011;10511;51.232;9.420;2023-11-21T06:49:41;0.90;;;0.90;;
20699;SDS011;10511;51.232;9.420;2023-11-21T06:52:08;0.90;;;0.90;;
20699;SDS011;10511;51.232;9.420;2023-11-21T06:54:36;0.90;;;0.90;;
20699;SDS011;10511;51.232;9.420;2023-11-21T06:57:03;0.97;;;0.97;;
20699;SDS011;10511;51.232;9.420;2023-11-21T06:59:32;0.90;;;0.90;;
20699;SDS011;10511;51.232;9.420;2023-11-21T07:01:58;0.90;;;0.90;;
20699;SDS011;10511;51.232;9.420;2023-11-21T07:04:26;0.90;;;0.90;;
20699;SDS011;10511;51.232;9.420;2023-11-21T07:06:53;0.90;;;0.90;;
20699;SDS011;10511;51.232;9.420;2023-11-21T07:09:21;0.90;;;0.90;;
20699;SDS011;10511;51.232;9.420;2023-11-21T07:11:48;1.00;;;1.00;;
20699;SDS011;10511;51.232;9.420;2023-11-21T07:14:15;0.90;;;0.90;;
20699;SDS011;10511;51.232;9.420;2023-11-21T07:16:46;0.90;;;0.90;;
20699;SDS011;10511;51.232;9.420;2023-11-21T07:19:13;0.90;;;0.90;;
20699;SDS011;10511;51.232;9.420;2023-11-21T07:21:40;0.90;;;0.90;;
20699;SDS011;10511;51.232;9.420;2023-11-21T07:24:07;1.00;;;1.00;;
20699;SDS011;10511;51.232;9.420;2023-11-21T07:26:36;0.90;;;0.90;;
20699;SDS011;10511;51.232;9.420;2023-11-21T07:29:03;0.90;;;0.90;;
20699;SDS011;10511;51.232;9.420;2023-11-21T07:31:31;1.00;;;1.00;;
20699;SDS011;10511;51.232;9.420;2023-11-21T07:34:00;0.90;;;0.90;;
20699;SDS011;10511;51.232;9.420;2023-11-21T07:36:27;0.90;;;0.90;;
20699;SDS011;10511;51.232;9.420;2023-11-21T07:38:54;1.00;;;1.00;;
20699;SDS011;10511;51.232;9.420;2023-11-21T07:41:21;1.00;;;1.00;;
20699;SDS011;10511;51.232;9.420;2023-11-21T07:43:48;1.00;;;1.00;;
20699;SDS011;10511;51.232;9.420;2023-11-21T07:46:15;0.90;;;0.90;;
20699;SDS011;10511;51.232;9.420;2023-11-21T07:48:42;0.93;;;0.93;;
20699;SDS011;10511;51.232;9.420;2023-11-21T07:51:12;1.00;;;1.00;;
20699;SDS011;10511;51.232;9.420;2023-11-21T07:53:39;1.00;;;1.00;;
20699;SDS011;10511;51.232;9.420;2023-11-21T07:56:07;0.90;;;0.90;;
20699;SDS011;10511;51.232;9.420;2023-11-21T07:58:34;0.90;;;0.90;;
20699;SDS011;10511;51.232;9.420;2023-11-21T08:01:02;0.90;;;0.90;;
20699;SDS011;10511;51.232;9.420;2023-11-21T08:03:29;0.90;;;0.90;;
20699;SDS011;10511;51.232;9.420;2023-11-21T08:05:56;1.00;;;1.00;;
20699;SDS011;10511;51.232;9.420;2023-11-21T08:08:25;1.00;;;1.00;;
20699;SDS011;10511;51.232;9.420;2023-11-21T08:10:52;1.00;;;1.00;;
20699;SDS011;10511;51.232;9.420;2023-11-21T08:13:22;0.97;;;0.97;;
20699;SDS011;10511;51.232;9.420;2023-11-21T08:15:49;1.00;;;1.00;;
20699;SDS011;10511;51.232;9.420;2023-11-21T08:18:16;1.00;;;1.00;;
20699;SDS011;10511;51.232;9.420;2023-11-21T08:20:44;0.90;;;0.90;;
20699;SDS011;10511;51.232;9.420;2023-11-21T08:23:13;1.00;;;1.00;;
20699;SDS011;10511;51.232;9.420;2023-11-21T08:25:42;1.00;;;1.00;;
20699;SDS011;10511;51.232;9.420;2023-11-21T08:28:09;1.00;;;1.00;;
20699;SDS011;10511;51.232;9.420;2023-11-21T08:30:36;1.00;;;1.00;;
20699;SDS011;10511;51.232;9.420;2023-11-21T08:33:04;0.90;;;0.90;;
20699;SDS011;10511;51.232;9.420;2023-11-21T08:35:32;1.00;;;1.00;;
20699;SDS011;10511;51.232;9.420;2023-11-21T08:37:58;0.90;;;0.90;;
20699;SDS011;10511;51.232;9.420;2023-11-21T08:40:25;1.00;;;1.00;;
20699;SDS011;10511;51.232;9.420;2023-11-21T08:42:54;0.90;;;0.90;;
20699;SDS011;10511;51.232;9.420;2023-11-21T08:45:21;0.90;;;0.90;;
20699;SDS011;10511;51.232;9.420;2023-11-21T08:47:48;0.90;;;0.90;;
20699;SDS011;10511;51.232;9.420;2023-11-21T08:50:15;0.90;;;0.90;;
20699;SDS011;10511;51.232;9.420;2023-11-21T08:52:44;0.97;;;0.97;;
20699;SDS011;10511;51.232;9.420;2023-11-21T08:55:12;1.00;;;1.00;;
20699;SDS011;10511;51.232;9.420;2023-11-21T08:57:39;0.90;;;0.90;;
20699;SDS011;10511;51.232;9.420;2023-11-21T09:00:09;0.90;;;0.90;;
20699;SDS011;10511;51.232;9.420;2023-11-21T09:02:37;0.90;;;0.90;;
20699;SDS011;10511;51.232;9.420;2023-11-21T09:05:07;0.90;;;0.90;;
20699;SDS011;10511;51.232;9.420;2023-11-21T09:07:34;0.90;;;0.90;;
20699;SDS011;10511;51.232;9.420;2023-11-21T09:10:02;0.90;;;0.90;;
20699;SDS011;10511;51.232;9.420;2023-11-21T09:12:29;1.00;;;1.00;;
20699;SDS011;10511;51.232;9.420;2023-11-21T09:14:57;0.90;;;0.90;;
20699;SDS011;10511;51.232;9.420;2023-11-21T09:17:26;1.00;;;1.00;;
20699;SDS011;10511;51.232;9.420;2023-11-21T09:19:53;0.83;;;0.83;;
20699;SDS011;10511;51.232;9.420;2023-11-21T09:22:20;1.00;;;1.00;;
20699;SDS011;10511;51.232;9.420;2023-11-21T09:24:46;1.00;;;1.00;;
20699;SDS011;10511;51.232;9.420;2023-11-21T09:27:13;0.90;;;0.90;;
20699;SDS011;10511;51.232;9.420;2023-11-21T09:29:40;0.90;;;0.90;;
20699;SDS011;10511;51.232;9.420;2023-11-21T09:32:07;0.80;;;0.80;;
20699;SDS011;10511;51.232;9.420;2023-11-21T09:34:38;1.00;;;1.00;;
20699;SDS011;10511;51.232;9.420;2023-11-21T09:37:07;0.90;;;0.90;;
20699;SDS011;10511;51.232;9.420;2023-11-21T09:39:34;0.90;;;0.90;;
20699;SDS011;10511;51.232;9.420;2023-11-21T09:42:04;0.90;;;0.90;;
20699;SDS011;10511;51.232;9.420;2023-11-21T09:44:45;0.90;;;0.90;;
20699;SDS011;10511;51.232;9.420;2023-11-21T09:47:18;0.80;;;0.80;;
20699;SDS011;10511;51.232;9.420;2023-11-21T09:49:47;0.90;;;0.90;;
20699;SDS011;10511;51.232;9.420;2023-11-21T09:52:17;0.83;;;0.83;;
20699;SDS011;10511;51.232;9.420;2023-11-21T09:54:52;0.90;;;0.90;;
20699;SDS011;10511;51.232;9.420;2023-11-21T09:57:22;0.80;;;0.80;;
20699;SDS011;10511;51.232;9.420;2023-11-21T09:59:50;0.90;;;0.90;;
20699;SDS011;10511;51.232;9.420;2023-11-21T10:02:20;0.80;;;0.80;;
20699;SDS011;10511;51.232;9.420;2023-11-21T10:04:52;0.90;;;0.90;;
20699;SDS011;10511;51.232;9.420;2023-11-21T10:07:20;0.97;;;0.97;;
20699;SDS011;10511;51.232;9.420;2023-11-21T10:09:47;0.90;;;0.90;;
20699;SDS011;10511;51.232;9.420;2023-11-21T10:12:14;0.80;;;0.80;;
20699;SDS011;10511;51.232;9.420;2023-11-21T10:14:42;0.90;;;0.90;;
20699;SDS011;10511;51.232;9.420;2023-11-21T10:17:10;0.80;;;0.80;;
20699;SDS011;10511;51.232;9.420;2023-11-21T10:19:41;0.90;;;0.90;;
20699;SDS011;10511;51.232;9.420;2023-11-21T10:22:11;0.90;;;0.90;;
20699;SDS011;10511;51.232;9.420;2023-11-21T10:24:40;0.90;;;0.90;;
20699;SDS011;10511;51.232;9.420;2023-11-21T10:27:08;0.80;;;0.80;;
20699;SDS011;10511;51.232;9.420;2023-11-21T10:29:35;0.97;;;0.97;;
20699;SDS011;10511;51.232;9.420;2023-11-21T10:32:02;0.90;;;0.90;;
20699;SDS011;10511;51.232;9.420;2023-11-21T10:34:30;0.90;;;0.90;;
20699;SDS011;10511;51.232;9.420;2023-11-21T10:36:58;0.83;;;0.83;;
20699;SDS011;10511;51.232;9.420;2023-11-21T10:39:26;0.83;;;0.83;;
20699;SDS011;10511;51.232;9.420;2023-11-21T10:41:56;0.80;;;0.80;;
20699;SDS011;10511;51.232;9.420;2023-11-21T10:44:22;0.80;;;0.80;;
20699;SDS011;10511;51.232;9.420;2023-11-21T10:46:51;0.80;;;0.80;;
20699;SDS011;10511;51.232;9.420;2023-11-21T10:49:21;0.80;;;0.80;;
20699;SDS011;10511;51.232;9.420;2023-11-21T10:51:49;0.80;;;0.80;;
20699;SDS011;10511;51.232;9.420;2023-11-21T10:54:18;0.90;;;0.90;;
20699;SDS011;10511;51.232;9.420;2023-11-21T10:56:47;1.00;;;1.00;;
20699;SDS011;10511;51.232;9.420;2023-11-21T10:59:16;0.90;;;0.90;;
20699;SDS011;10511;51.232;9.420;2023-11-21T11:01:46;0.90;;;0.90;;
20699;SDS011;10511;51.232;9.420;2023-11-21T11:04:15;0.80;;;0.80;;
20699;SDS011;10511;51.232;9.420;2023-11-21T11:06:44;0.80;;;0.80;;
20699;SDS011;10511;51.232;9.420;2023-11-21T11:09:15;0.90;;;0.90;;
20699;SDS011;10511;51.232;9.420;2023-11-21T11:11:43;0.80;;;0.80;;
20699;SDS011;10511;51.232;9.420;2023-11-21T11:14:12;0.80;;;0.80;;
20699;SDS011;10511;51.232;9.420;2023-11-21T11:16:40;0.80;;;0.80;;
20699;SDS011;10511;51.232;9.420;2023-11-21T11:19:08;0.90;;;0.90;;
20699;SDS011;10511;51.232;9.420;2023-11-21T11:21:38;0.90;;;0.90;;
20699;SDS011;10511;51.232;9.420;2023-11-21T11:24:31;0.80;;;0.80;;
20699;SDS011;10511;51.232;9.420;2023-11-21T11:27:10;0.80;;;0.80;;
20699;SDS011;10511;51.232;9.420;2023-11-21T11:29:45;0.80;;;0.80;;
20699;SDS011;10511;51.232;9.420;2023-11-21T11:32:21;0.80;;;0.80;;
20699;SDS011;10511;51.232;9.420;2023-11-21T11:34:59;0.83;;;0.83;;
20699;SDS011;10511;51.232;9.420;2023-11-21T11:37:32;0.80;;;0.80;;
20699;SDS011;10511;51.232;9.420;2023-11-21T11:39:59;0.80;;;0.80;;
20699;SDS011;10511;51.232;9.420;2023-11-21T11:42:26;0.90;;;0.90;;
20699;SDS011;10511;51.232;9.420;2023-11-21T11:44:57;0.80;;;0.80;;
20699;SDS011;10511;51.232;9.420;2023-11-21T11:47:24;0.80;;;0.80;;
20699;SDS011;10511;51.232;9.420;2023-11-21T11:49:56;0.80;;;0.80;;
20699;SDS011;10511;51.232;9.420;2023-11-21T11:52:34;0.90;;;0.90;;
20699;SDS011;10511;51.232;9.420;2023-11-21T11:55:02;0.80;;;0.80;;
20699;SDS011;10511;51.232;9.420;2023-11-21T11:57:30;0.80;;;0.80;;
20699;SDS011;10511;51.232;9.420;2023-11-21T12:00:09;0.90;;;0.90;;
20699;SDS011;10511;51.232;9.420;2023-11-21T12:02:44;0.90;;;0.90;;
20699;SDS011;10511;51.232;9.420;2023-11-21T12:05:12;0.90;;;0.90;;
20699;SDS011;10511;51.232;9.420;2023-11-21T12:07:43;0.83;;;0.83;;
20699;SDS011;10511;51.232;9.420;2023-11-21T12:10:13;0.80;;;0.80;;
20699;SDS011;10511;51.232;9.420;2023-11-21T12:12:43;0.90;;;0.90;;
20699;SDS011;10511;51.232;9.420;2023-11-21T12:15:15;0.90;;;0.90;;
20699;SDS011;10511;51.232;9.420;2023-11-21T12:17:44;0.90;;;0.90;;
20699;SDS011;10511;51.232;9.420;2023-11-21T12:20:11;0.90;;;0.90;;
20699;SDS011;10511;51.232;9.420;2023-11-21T12:22:43;0.90;;;0.90;;
20699;SDS011;10511;51.232;9.420;2023-11-21T12:25:12;0.90;;;0.90;;
20699;SDS011;10511;51.232;9.420;2023-11-21T12:27:41;0.90;;;0.90;;
20699;SDS011;10511;51.232;9.420;2023-11-21T12:30:10;0.90;;;0.90;;
20699;SDS011;10511;51.232;9.420;2023-11-21T12:32:42;0.90;;;0.90;;
20699;SDS011;10511;51.232;9.420;2023-11-21T12:35:11;1.00;;;1.00;;
20699;SDS011;10511;51.232;9.420;2023-11-21T12:37:39;0.93;;;0.93;;
20699;SDS011;10511;51.232;9.420;2023-11-21T12:40:08;0.90;;;0.90;;
20699;SDS011;10511;51.232;9.420;2023-11-21T12:42:37;1.00;;;1.00;;
20699;SDS011;10511;51.232;9.420;2023-11-21T12:45:07;0.90;;;0.90;;
20699;SDS011;10511;51.232;9.420;2023-11-21T12:47:39;0.90;;;0.90;;
20699;SDS011;10511;51.232;9.420;2023-11-21T12:50:09;0.90;;;0.90;;
20699;SDS011;10511;51.232;9.420;2023-11-21T12:52:42;0.90;;;0.90;;
20699;SDS011;10511;51.232;9.420;2023-11-21T12:55:16;0.90;;;0.90;;
20699;SDS011;10511;51.232;9.420;2023-11-21T12:57:47;0.90;;;0.90;;
20699;SDS011;10511;51.232;9.420;2023-11-21T13:00:16;1.00;;;1.00;;
20699;SDS011;10511;51.232;9.420;2023-11-21T13:02:54;1.00;;;1.00;;
20699;SDS011;10511;51.232;9.420;2023-11-21T13:05:24;1.00;;;1.00;;
20699;SDS011;10511;51.232;9.420;2023-11-21T13:07:51;1.00;;;1.00;;
20699;SDS011;10511;51.232;9.420;2023-11-21T13:10:19;0.90;;;0.90;;
20699;SDS011;10511;51.232;9.420;2023-11-21T13:12:50;1.00;;;1.00;;
20699;SDS011;10511;51.232;9.420;2023-11-21T13:15:19;0.90;;;0.90;;
20699;SDS011;10511;51.232;9.420;2023-11-21T13:17:46;0.93;;;0.93;;
20699;SDS011;10511;51.232;9.420;2023-11-21T13:20:16;1.00;;;1.00;;
20699;SDS011;10511;51.232;9.420;2023-11-21T13:22:48;1.00;;;1.00;;
20699;SDS011;10511;51.232;9.420;2023-11-21T13:25:18;1.00;;;1.00;;
20699;SDS011;10511;51.232;9.420;2023-11-21T13:27:46;1.00;;;1.00;;
20699;SDS011;10511;51.232;9.420;2023-11-21T13:30:13;1.00;;;1.00;;
20699;SDS011;10511;51.232;9.420;2023-11-21T13:32:42;1.00;;;1.00;;
20699;SDS011;10511;51.232;9.420;2023-11-21T13:35:11;0.90;;;0.90;;
20699;SDS011;10511;51.232;9.420;2023-11-21T13:37:50;1.00;;;1.00;;
20699;SDS011;10511;51.232;9.420;2023-11-21T13:40:21;1.00;;;1.00;;
20699;SDS011;10511;51.232;9.420;2023-11-21T13:42:51;1.03;;;1.03;;
20699;SDS011;10511;51.232;9.420;2023-11-21T13:45:20;1.10;;;1.10;;
20699;SDS011;10511;51.232;9.420;2023-11-21T13:47:49;0.90;;;0.90;;
20699;SDS011;10511;51.232;9.420;2023-11-21T13:50:22;1.00;;;1.00;;
20699;SDS011;10511;51.232;9.420;2023-11-21T13:53:00;1.10;;;1.10;;
20699;SDS011;10511;51.232;9.420;2023-11-21T13:55:29;1.10;;;1.10;;
20699;SDS011;10511;51.232;9.420;2023-11-21T13:57:56;1.00;;;1.00;;
20699;SDS011;10511;51.232;9.420;2023-11-21T14:00:24;1.00;;;1.00;;
20699;SDS011;10511;51.232;9.420;2023-11-21T14:03:09;1.10;;;1.10;;
20699;SDS011;10511;51.232;9.420;2023-11-21T14:05:44;1.23;;;1.23;;
20699;SDS011;10511;51.232;9.420;2023-11-21T14:08:13;1.20;;;1.20;;
20699;SDS011;10511;51.232;9.420;2023-11-21T14:10:45;1.00;;;1.00;;
20699;SDS011;10511;51.232;9.420;2023-11-21T14:13:15;1.10;;;1.10;;
20699;SDS011;10511;51.232;9.420;2023-11-21T14:15:43;1.10;;;1.10;;
20699;SDS011;10511;51.232;9.420;2023-11-21T14:18:11;1.00;;;1.00;;
20699;SDS011;10511;51.232;9.420;2023-11-21T14:20:44;1.00;;;1.00;;
20699;SDS011;10511;51.232;9.420;2023-11-21T14:23:11;1.10;;;1.10;;
20699;SDS011;10511;51.232;9.420;2023-11-21T14:25:39;1.10;;;1.10;;
20699;SDS011;10511;51.232;9.420;2023-11-21T14:28:07;1.20;;;1.20;;
20699;SDS011;10511;51.232;9.420;2023-11-21T14:30:36;1.10;;;1.10;;
20699;SDS011;10511;51.232;9.420;2023-11-21T14:33:04;1.20;;;1.20;;
20699;SDS011;10511;51.232;9.420;2023-11-21T14:35:33;1.10;;;1.10;;
20699;SDS011;10511;51.232;9.420;2023-11-21T14:38:00;1.10;;;1.10;;
20699;SDS011;10511;51.232;9.420;2023-11-21T14:40:29;1.00;;;1.00;;
20699;SDS011;10511;51.232;9.420;2023-11-21T14:43:00;1.17;;;1.17;;
20699;SDS011;10511;51.232;9.420;2023-11-21T14:45:27;1.10;;;1.10;;
20699;SDS011;10511;51.232;9.420;2023-11-21T14:47:55;1.10;;;1.10;;
20699;SDS011;10511;51.232;9.420;2023-11-21T14:50:31;1.10;;;1.10;;
20699;SDS011;10511;51.232;9.420;2023-11-21T14:53:35;1.10;;;1.10;;
20699;SDS011;10511;51.232;9.420;2023-11-21T14:56:08;1.20;;;1.20;;